Aérodrome :
LOGIN :

S'inscrire | Disclaimer

   EN    FR    IT 

 










Légende :    VFR   VFR Marginal   IFR   IFR Intensif   IFR Très Intensif
Visi : 
Plafond : 
>= 8 km
>= 3000ft
5 à 8 km
1000 à 3000 ft
1500m à 5 km
500 à 1000 ft
800 à 1500m
200 à 500 ft
< 800m
< 200 ft
Symboles :   Orages  Brouillard  Fortes neiges  Fortes précipitations  Vent > 20 kt
SIGMETs :   Divers  Orages  Givrage  Turbulence  Onde Orograph.  Cendres Volcan.







- Altitude de l'aérodrome : 147 ft
- Code IATA : DUS


EDDL - Düsseldorf Int.

DERNIER METAR :
  • 141020Z 26012KT 230V300 9999 SCT028 BKN038 21/14 Q1014 NOSIG

METARs EXPIRÉS :
  • 140950Z 27012KT 250V310 9999 FEW026 BKN035 21/14 Q1014 NOSIG
  • 140920Z 28012KT 250V320 9999 FEW018 BKN025 20/14 Q1013 NOSIG
  • 140850Z 28010KT 250V310 9999 SCT018 19/15 Q1013 NOSIG
  • 140820Z 27012KT 240V300 9999 FEW008 BKN014 BKN032 19/16 Q1013 BECMG BKN015
  • 140750Z 25012KT 9999 FEW008 BKN012 BKN034 18/16 Q1013 BECMG BKN015

TAF TAF EDDL
Valide du 14 à 06h jusqu'au 15 à 12h UTC


140500Z 1406/1512 25010KT 9999 BKN012
PROB30
TEMPO 1406/1408 4500 RA BKN008
BECMG 1407/1410 SCT014 BKN030
TEMPO 1411/1416 29015G25KT
BECMG 1419/1422 26004KT
BECMG 1504/1507 20007KT
Pas de NOTAMs connus pour ce terrain.



MET'MAP, la Météo Aéronautique d'un coup d'oeil ! - Copyright ORBIFLY Décembre 2007 - Disclaimer

ORBIFLY MET'MAP TEAM :

Programmation & Développement : Alexandra Zaïnal
Conception & Développement : Baudouin d'Aumeries
Co-Programmation & Développement : Marc-Olivier Méhu
Soutien technique & logistique : Manuel Goepfert

Contact : metmap@orbifly.com




SOURCES & CREDITS :

   NOAA